Time;durP1;ratioP1;P1;durP2;ratioP2;P2;SDS_P1;SDS_P2;PMS_P1;PMS_P2;Temp;Humidity;BMP_temperature;BMP_pressure;BME280_temperature;BME280_humidity;BME280_pressure;Samples;Min_cycle;Max_cycle;Signal;HPM_P1;HPM_P2
2022/05/08 00:02:36;;;;;;;29.10;13.82;;;;;;;;;;10373028;28;20088;-76
2022/05/08 00:07:39;;;;;;;31.17;13.85;;;;;;;;;;10357143;28;20565;-75
2022/05/08 00:12:44;;;;;;;31.30;14.57;;;;;;;;;;10359359;28;20129;-77
2022/05/08 00:17:47;;;;;;;31.00;13.57;;;;;;;;;;10361640;28;21041;-77
2022/05/08 00:22:49;;;;;;;30.33;14.63;;;;;;;;;;10359631;28;20148;-76
2022/05/08 00:27:54;;;;;;;29.38;13.70;;;;;;;;;;10350604;28;20038;-73
2022/05/08 00:32:57;;;;;;;30.52;13.85;;;;;;;;;;10372478;28;20409;-76
2022/05/08 00:38:01;;;;;;;32.03;14.70;;;;;;;;;;10364756;28;20037;-76
2022/05/08 00:43:22;;;;;;;37.70;16.33;;;;;;;;;;10374119;28;20099;-77
2022/05/08 00:48:27;;;;;;;35.50;15.70;;;;;;;;;;10368962;28;20050;-77
2022/05/08 00:53:33;;;;;;;34.70;14.98;;;;;;;;;;10365421;28;20132;-78
2022/05/08 00:58:36;;;;;;;38.70;16.42;;;;;;;;;;10359454;28;20073;-78
2022/05/08 01:03:41;;;;;;;35.05;15.45;;;;;;;;;;10361989;28;20469;-76
2022/05/08 01:08:45;;;;;;;35.85;16.58;;;;;;;;;;10363232;28;20039;-77
2022/05/08 01:13:48;;;;;;;32.03;14.48;;;;;;;;;;10364263;28;20146;-77
2022/05/08 01:18:52;;;;;;;29.98;13.40;;;;;;;;;;10365535;28;20128;-76
2022/05/08 01:23:59;;;;;;;28.23;13.15;;;;;;;;;;10355773;28;20073;-76
2022/05/08 01:29:03;;;;;;;29.23;13.10;;;;;;;;;;10350821;28;20528;-75
2022/05/08 01:34:06;;;;;;;26.63;13.07;;;;;;;;;;10369568;28;20047;-76
2022/05/08 01:39:10;;;;;;;30.15;13.35;;;;;;;;;;10360796;28;20152;-77
2022/05/08 01:44:13;;;;;;;31.77;14.48;;;;;;;;;;10364517;28;20034;-77
2022/05/08 01:49:16;;;;;;;30.80;13.97;;;;;;;;;;10362193;28;20490;-77
2022/05/08 01:54:21;;;;;;;33.05;14.75;;;;;;;;;;10360710;28;20132;-77
2022/05/08 01:59:23;;;;;;;36.75;15.95;;;;;;;;;;10355575;28;20164;-74
2022/05/08 02:04:26;;;;;;;35.38;16.08;;;;;;;;;;10363794;28;20633;-76
2022/05/08 02:09:31;;;;;;;37.05;16.10;;;;;;;;;;10364191;28;20042;-78
2022/05/08 02:14:34;;;;;;;36.13;16.35;;;;;;;;;;10366839;28;20136;-77
2022/05/08 02:19:37;;;;;;;38.67;15.67;;;;;;;;;;10367165;28;20403;-77
2022/05/08 02:24:42;;;;;;;39.47;16.40;;;;;;;;;;10352377;28;20528;-78
2022/05/08 02:29:47;;;;;;;40.00;18.05;;;;;;;;;;10343167;28;20053;-78
2022/05/08 02:34:50;;;;;;;39.22;17.20;;;;;;;;;;10367192;28;20085;-75
2022/05/08 02:39:54;;;;;;;42.50;18.52;;;;;;;;;;10362200;28;20037;-78
2022/05/08 02:44:57;;;;;;;42.33;17.10;;;;;;;;;;10359863;28;20056;-78
2022/05/08 02:50:00;;;;;;;42.35;17.30;;;;;;;;;;10356791;28;20100;-77
2022/05/08 03:00:23;;;;;;;33.25;14.43;;;;;;;;;;10359998;28;20502;-76
2022/05/08 03:05:25;;;;;;;39.78;16.55;;;;;;;;;;10359158;28;20091;-78
2022/05/08 03:11:25;;;;;;;34.67;14.70;;;;;;;;;;10363262;28;20046;-77
2022/05/08 03:15:53;;;;;;;;;;;;;;;;;;10364673;28;20030;-78
2022/05/08 03:20:56;;;;;;;32.97;15.20;;;;;;;;;;10376996;28;19921;-78
2022/05/08 03:26:00;;;;;;;33.70;16.43;;;;;;;;;;10367912;28;20040;-78
2022/05/08 03:31:04;;;;;;;34.72;16.83;;;;;;;;;;10350818;28;20038;-78
2022/05/08 03:36:08;;;;;;;37.25;15.90;;;;;;;;;;10369403;28;20069;-77
2022/05/08 03:41:15;;;;;;;34.70;16.45;;;;;;;;;;10364660;28;20069;-77
2022/05/08 03:46:18;;;;;;;31.63;14.45;;;;;;;;;;10376467;28;20045;-78
2022/05/08 03:51:21;;;;;;;35.70;16.10;;;;;;;;;;10361987;28;20033;-78
2022/05/08 03:56:27;;;;;;;33.13;15.32;;;;;;;;;;10364694;28;20088;-76
2022/05/08 04:01:31;;;;;;;33.85;14.95;;;;;;;;;;10365096;28;20054;-76
2022/05/08 04:06:34;;;;;;;31.53;14.67;;;;;;;;;;10361723;28;20034;-77
2022/05/08 04:11:38;;;;;;;35.38;15.60;;;;;;;;;;10375901;28;20076;-77
2022/05/08 04:16:41;;;;;;;35.65;16.52;;;;;;;;;;10370111;28;20121;-76
2022/05/08 04:21:44;;;;;;;34.28;16.50;;;;;;;;;;10368992;28;20092;-78
2022/05/08 04:26:50;;;;;;;36.25;16.02;;;;;;;;;;10362361;28;20534;-76
2022/05/08 04:31:53;;;;;;;33.78;15.55;;;;;;;;;;10351170;28;20052;-77
2022/05/08 04:36:56;;;;;;;33.63;15.27;;;;;;;;;;10368955;28;20490;-76
2022/05/08 04:42:01;;;;;;;32.88;14.75;;;;;;;;;;10367760;28;20125;-77
2022/05/08 04:47:04;;;;;;;29.17;13.90;;;;;;;;;;10369507;28;20409;-78
2022/05/08 04:52:07;;;;;;;35.80;15.77;;;;;;;;;;10366915;28;20494;-78
2022/05/08 04:57:11;;;;;;;32.10;15.77;;;;;;;;;;10383316;28;20025;-75
2022/05/08 05:02:14;;;;;;;30.27;14.13;;;;;;;;;;10366684;28;20393;-75
2022/05/08 05:07:17;;;;;;;31.08;14.38;;;;;;;;;;10364543;28;20092;-76
2022/05/08 05:12:23;;;;;;;32.20;15.77;;;;;;;;;;10362016;28;20100;-75
2022/05/08 05:17:26;;;;;;;28.73;14.63;;;;;;;;;;10357079;28;20041;-75
2022/05/08 05:22:29;;;;;;;30.43;14.20;;;;;;;;;;10368782;28;20058;-76
2022/05/08 05:27:34;;;;;;;30.88;14.27;;;;;;;;;;10359090;28;20133;-76
2022/05/08 05:32:39;;;;;;;28.10;14.13;;;;;;;;;;10349718;28;20476;-76
2022/05/08 05:37:42;;;;;;;27.70;13.90;;;;;;;;;;10362422;28;20042;-76
2022/05/08 05:42:46;;;;;;;31.42;15.20;;;;;;;;;;10360417;28;20113;-77
2022/05/08 05:47:52;;;;;;;29.55;13.77;;;;;;;;;;10368911;28;20073;-76
2022/05/08 05:52:56;;;;;;;31.02;15.40;;;;;;;;;;10357051;28;20037;-77
2022/05/08 05:58:00;;;;;;;26.98;13.52;;;;;;;;;;10360226;28;20522;-77
2022/05/08 06:03:04;;;;;;;29.98;14.43;;;;;;;;;;10376429;28;20080;-77
2022/05/08 06:08:06;;;;;;;26.92;15.05;;;;;;;;;;10363493;28;20072;-76
2022/05/08 06:13:11;;;;;;;29.70;14.60;;;;;;;;;;10370038;28;20070;-78
2022/05/08 06:18:13;;;;;;;29.30;14.02;;;;;;;;;;10363425;28;20105;-77
2022/05/08 06:23:17;;;;;;;27.60;13.93;;;;;;;;;;10364245;28;20441;-76
2022/05/08 06:28:21;;;;;;;23.97;13.13;;;;;;;;;;10363641;28;20061;-76
2022/05/08 06:33:23;;;;;;;22.23;11.98;;;;;;;;;;10345236;28;20050;-77
2022/05/08 06:38:26;;;;;;;22.20;11.93;;;;;;;;;;10351395;28;20281;-76
2022/05/08 06:43:30;;;;;;;23.23;12.17;;;;;;;;;;10361088;28;20442;-78
2022/05/08 06:48:33;;;;;;;20.20;11.00;;;;;;;;;;10351452;28;20035;-73
2022/05/08 06:53:36;;;;;;;19.97;10.13;;;;;;;;;;10358264;28;20591;-73
2022/05/08 07:03:57;;;;;;;20.60;11.40;;;;;;;;;;10350503;28;20550;-73
2022/05/08 07:08:59;;;;;;;17.17;10.13;;;;;;;;;;10353493;28;20128;-71
2022/05/08 07:14:04;;;;;;;19.37;10.77;;;;;;;;;;10345280;28;20048;-71
2022/05/08 07:19:06;;;;;;;18.20;10.00;;;;;;;;;;10351427;28;21913;-74
2022/05/08 07:24:09;;;;;;;15.07;8.57;;;;;;;;;;10354952;28;20053;-72
2022/05/08 07:29:14;;;;;;;18.85;11.07;;;;;;;;;;10364049;28;20455;-73
2022/05/08 07:39:37;;;;;;;18.25;9.85;;;;;;;;;;10368332;28;20165;-73
2022/05/08 07:44:41;;;;;;;;;;;;;;;;;;10366312;28;20115;-74
2022/05/08 07:49:45;;;;;;;14.90;8.27;;;;;;;;;;10368677;28;20373;-75
2022/05/08 07:54:48;;;;;;;17.98;10.15;;;;;;;;;;10349602;28;20504;-74
2022/05/08 07:59:51;;;;;;;17.98;9.98;;;;;;;;;;10351616;28;20050;-73
2022/05/08 08:04:55;;;;;;;17.45;9.90;;;;;;;;;;10354896;28;20049;-74
2022/05/08 08:09:59;;;;;;;15.68;8.77;;;;;;;;;;10374466;28;20494;-74
2022/05/08 08:15:03;;;;;;;14.20;8.32;;;;;;;;;;10372926;28;20155;-71
2022/05/08 08:20:09;;;;;;;16.55;9.52;;;;;;;;;;10359336;28;20091;-73
2022/05/08 08:25:12;;;;;;;20.33;10.23;;;;;;;;;;10352437;28;20096;-72
2022/05/08 08:30:15;;;;;;;15.52;10.13;;;;;;;;;;10356717;28;20072;-72
2022/05/08 08:35:19;;;;;;;16.00;7.97;;;;;;;;;;10352802;28;20065;-72
2022/05/08 08:40:22;;;;;;;10.38;6.00;;;;;;;;;;10356955;28;20292;-73
2022/05/08 08:50:48;;;;;;;13.52;8.55;;;;;;;;;;10349214;28;20229;-74
2022/05/08 08:55:51;;;;;;;13.02;6.90;;;;;;;;;;10357118;28;20049;-75
2022/05/08 09:00:54;;;;;;;12.32;7.13;;;;;;;;;;10362698;28;20025;-74
2022/05/08 09:05:58;;;;;;;12.45;6.72;;;;;;;;;;10374591;28;20048;-73
2022/05/08 09:11:02;;;;;;;9.73;5.75;;;;;;;;;;10360438;28;20061;-73
2022/05/08 09:16:06;;;;;;;6.55;4.38;;;;;;;;;;10379567;28;20613;-74
2022/05/08 09:26:42;;;;;;;10.68;6.45;;;;;;;;;;10356324;28;20152;-72
2022/05/08 09:31:44;;;;;;;9.32;6.32;;;;;;;;;;10362792;28;20065;-73
2022/05/08 09:37:04;;;;;;;11.50;6.75;;;;;;;;;;10352684;28;20390;-73
2022/05/08 09:42:07;;;;;;;11.40;6.93;;;;;;;;;;10345300;28;20402;-73
2022/05/08 09:47:10;;;;;;;12.07;6.43;;;;;;;;;;10356890;28;20034;-73
2022/05/08 09:52:15;;;;;;;12.27;5.80;;;;;;;;;;10351977;28;20053;-73
2022/05/08 09:57:18;;;;;;;9.90;6.35;;;;;;;;;;10354064;28;20066;-76
2022/05/08 10:02:22;;;;;;;10.68;6.75;;;;;;;;;;10355066;28;20049;-75
2022/05/08 10:07:27;;;;;;;14.13;7.50;;;;;;;;;;10358036;28;20041;-73
2022/05/08 10:17:51;;;;;;;9.82;5.95;;;;;;;;;;10354158;28;20056;-75
2022/05/08 10:22:56;;;;;;;10.15;6.20;;;;;;;;;;10350854;28;20074;-74
2022/05/08 10:28:05;;;;;;;9.25;5.07;;;;;;;;;;10359728;28;20057;-74
2022/05/08 10:33:09;;;;;;;10.40;6.15;;;;;;;;;;10347495;28;20157;-75
2022/05/08 10:38:23;;;;;;;8.88;5.55;;;;;;;;;;10349144;28;20038;-74
2022/05/08 10:43:34;;;;;;;10.45;6.93;;;;;;;;;;10351743;28;20100;-74
2022/05/08 10:48:38;;;;;;;10.32;5.97;;;;;;;;;;10371784;28;20046;-72
2022/05/08 10:53:42;;;;;;;8.32;5.47;;;;;;;;;;10356644;28;20038;-77
2022/05/08 10:58:53;;;;;;;9.82;6.15;;;;;;;;;;10361144;28;20116;-77
2022/05/08 11:04:10;;;;;;;9.45;5.75;;;;;;;;;;10372411;28;20374;-76
2022/05/08 11:09:14;;;;;;;13.50;7.22;;;;;;;;;;10357020;28;20038;-77
2022/05/08 11:14:24;;;;;;;10.70;6.10;;;;;;;;;;10356075;28;20849;-75
2022/05/08 11:19:27;;;;;;;8.40;5.57;;;;;;;;;;10377843;28;20042;-76
2022/05/08 11:24:31;;;;;;;7.57;5.93;;;;;;;;;;10350208;28;20046;-76
2022/05/08 11:29:34;;;;;;;9.65;5.75;;;;;;;;;;10356976;28;20469;-75
2022/05/08 11:40:05;;;;;;;9.45;5.80;;;;;;;;;;10367379;28;20034;-76
2022/05/08 11:45:08;;;;;;;8.85;5.45;;;;;;;;;;10378602;28;20149;-76
2022/05/08 11:50:11;;;;;;;9.18;5.97;;;;;;;;;;10363020;28;20034;-76
2022/05/08 11:55:17;;;;;;;10.80;6.32;;;;;;;;;;10362083;28;20159;-77
2022/05/08 12:00:20;;;;;;;11.45;5.80;;;;;;;;;;10364191;28;20148;-76
2022/05/08 12:05:28;;;;;;;7.00;4.43;;;;;;;;;;10371319;28;20115;-76
2022/05/08 12:10:40;;;;;;;9.50;5.97;;;;;;;;;;10361814;28;20050;-76
2022/05/08 12:15:43;;;;;;;9.45;4.97;;;;;;;;;;10355397;28;20042;-76
2022/05/08 12:20:46;;;;;;;9.95;6.35;;;;;;;;;;10360755;28;20049;-76
2022/05/08 12:25:51;;;;;;;9.10;5.45;;;;;;;;;;10356722;28;20148;-76
2022/05/08 12:30:54;;;;;;;10.25;5.75;;;;;;;;;;10370290;28;20042;-77
2022/05/08 12:35:57;;;;;;;8.68;5.95;;;;;;;;;;10358863;28;20040;-77
2022/05/08 12:41:01;;;;;;;9.20;6.25;;;;;;;;;;10364864;28;20128;-76
2022/05/08 12:46:04;;;;;;;8.18;5.80;;;;;;;;;;10363774;28;20038;-76
2022/05/08 12:51:07;;;;;;;10.02;5.55;;;;;;;;;;10363421;28;20115;-73
2022/05/08 12:56:12;;;;;;;10.88;6.22;;;;;;;;;;10356616;28;20042;-76
2022/05/08 13:01:15;;;;;;;9.13;5.38;;;;;;;;;;10371715;28;20030;-77
2022/05/08 13:06:18;;;;;;;6.07;4.13;;;;;;;;;;10366393;28;20052;-75
2022/05/08 13:11:22;;;;;;;7.35;4.95;;;;;;;;;;10359530;28;20286;-75
2022/05/08 13:16:25;;;;;;;7.05;4.80;;;;;;;;;;10359414;28;20475;-78
2022/05/08 13:21:34;;;;;;;10.82;5.88;;;;;;;;;;10367848;28;20590;-79
2022/05/08 13:26:39;;;;;;;7.85;4.78;;;;;;;;;;10359790;28;20061;-77
2022/05/08 13:31:41;;;;;;;7.63;4.55;;;;;;;;;;10354982;28;20457;-79
2022/05/08 13:36:45;;;;;;;8.82;5.13;;;;;;;;;;10358142;28;20138;-77
2022/05/08 13:41:49;;;;;;;7.05;5.38;;;;;;;;;;10357812;28;20077;-77
2022/05/08 13:46:53;;;;;;;6.53;4.68;;;;;;;;;;10357776;28;20087;-77
2022/05/08 13:51:56;;;;;;;8.13;5.13;;;;;;;;;;10356931;28;20104;-75
2022/05/08 13:57:02;;;;;;;7.07;4.78;;;;;;;;;;10353330;28;20087;-78
2022/05/08 14:02:04;;;;;;;6.45;4.78;;;;;;;;;;10374213;28;20151;-77
2022/05/08 14:07:07;;;;;;;15.15;5.43;;;;;;;;;;10351577;28;20378;-77
2022/05/08 14:12:12;;;;;;;8.18;5.25;;;;;;;;;;10370502;28;20057;-77
2022/05/08 14:17:15;;;;;;;7.63;4.88;;;;;;;;;;10355716;28;20576;-75
2022/05/08 14:22:18;;;;;;;7.20;5.22;;;;;;;;;;10347899;28;20061;-76
2022/05/08 14:27:23;;;;;;;10.00;5.97;;;;;;;;;;10353627;28;20041;-75
2022/05/08 14:37:50;;;;;;;9.52;5.28;;;;;;;;;;10341977;28;20050;-74
2022/05/08 14:42:54;;;;;;;9.43;6.55;;;;;;;;;;10353744;28;20029;-78
2022/05/08 14:47:58;;;;;;;8.73;5.82;;;;;;;;;;10348306;28;20041;-76
2022/05/08 14:53:02;;;;;;;9.45;6.20;;;;;;;;;;10346184;28;20057;-80
2022/05/08 14:58:06;;;;;;;14.38;7.30;;;;;;;;;;10349227;28;20061;-78
2022/05/08 15:03:10;;;;;;;9.50;5.97;;;;;;;;;;10349931;28;20086;-76
2022/05/08 15:08:13;;;;;;;9.23;6.18;;;;;;;;;;10348536;28;20052;-76
2022/05/08 15:13:17;;;;;;;10.30;6.63;;;;;;;;;;10352334;28;20065;-77
2022/05/08 15:23:41;;;;;;;12.43;7.93;;;;;;;;;;10356987;28;20503;-76
2022/05/08 15:28:46;;;;;;;13.25;7.50;;;;;;;;;;10356845;28;20105;-74
2022/05/08 15:33:48;;;;;;;9.85;6.13;;;;;;;;;;10356588;28;20060;-77
2022/05/08 15:38:51;;;;;;;10.30;6.00;;;;;;;;;;10351662;28;20052;-76
2022/05/08 15:43:56;;;;;;;13.68;8.27;;;;;;;;;;10363595;28;20045;-77
2022/05/08 15:48:58;;;;;;;11.07;6.55;;;;;;;;;;10358216;28;20132;-76
2022/05/08 15:54:04;;;;;;;10.30;6.68;;;;;;;;;;10366880;28;20037;-77
2022/05/08 15:59:08;;;;;;;9.43;6.00;;;;;;;;;;10354304;28;20211;-77
2022/05/08 16:04:12;;;;;;;10.02;6.30;;;;;;;;;;10366613;28;20045;-77
2022/05/08 16:09:14;;;;;;;;;;;;;;;;;;10363122;28;20072;-76
2022/05/08 16:25:18;;;;;;;10.00;6.50;;;;;;;;;;10357452;28;20152;-75
2022/05/08 16:30:22;;;;;;;10.18;5.68;;;;;;;;;;10361313;28;20035;-76
2022/05/08 16:35:25;;;;;;;8.55;5.20;;;;;;;;;;10357799;28;20127;-73
2022/05/08 16:40:28;;;;;;;9.90;5.75;;;;;;;;;;10353377;28;20369;-77
2022/05/08 16:45:32;;;;;;;7.97;5.10;;;;;;;;;;10352970;28;20046;-75
2022/05/08 16:50:36;;;;;;;8.23;5.10;;;;;;;;;;10353160;28;20042;-77
2022/05/08 16:55:45;;;;;;;8.07;5.32;;;;;;;;;;10370052;28;20518;-76
2022/05/08 17:00:49;;;;;;;10.25;5.53;;;;;;;;;;10357365;28;20034;-76
2022/05/08 17:05:52;;;;;;;7.45;4.97;;;;;;;;;;10354913;28;20049;-76
2022/05/08 17:10:55;;;;;;;8.93;5.50;;;;;;;;;;10359477;28;20389;-76
2022/05/08 17:15:59;;;;;;;17.90;9.23;;;;;;;;;;10351380;28;20358;-78
2022/05/08 17:21:02;;;;;;;12.02;5.50;;;;;;;;;;10354563;28;20072;-75
2022/05/08 17:26:05;;;;;;;9.05;5.75;;;;;;;;;;10361779;28;20066;-77
2022/05/08 17:31:11;;;;;;;8.63;5.35;;;;;;;;;;10354218;28;20490;-76
2022/05/08 17:36:15;;;;;;;9.18;5.25;;;;;;;;;;10347324;28;20406;-76
2022/05/08 17:41:19;;;;;;;8.85;5.47;;;;;;;;;;10348862;28;20034;-76
2022/05/08 17:46:24;;;;;;;9.88;5.50;;;;;;;;;;10354425;28;20391;-74
2022/05/08 17:51:27;;;;;;;9.90;5.78;;;;;;;;;;10357881;28;20034;-72
2022/05/08 17:56:35;;;;;;;9.75;5.35;;;;;;;;;;10353847;28;20294;-73
2022/05/08 18:01:41;;;;;;;9.75;5.55;;;;;;;;;;10356546;28;20470;-75
2022/05/08 18:06:45;;;;;;;8.65;5.50;;;;;;;;;;10363040;28;20041;-76
2022/05/08 18:11:48;;;;;;;10.60;5.97;;;;;;;;;;10349271;28;20400;-72
2022/05/08 18:16:52;;;;;;;10.57;5.95;;;;;;;;;;10357693;28;20550;-72
2022/05/08 18:21:55;;;;;;;11.90;5.50;;;;;;;;;;10355054;28;20060;-72
2022/05/08 18:26:58;;;;;;;13.50;6.70;;;;;;;;;;10349387;28;20236;-72
2022/05/08 18:32:02;;;;;;;9.87;5.43;;;;;;;;;;10360137;28;20042;-71
2022/05/08 18:37:05;;;;;;;12.80;6.88;;;;;;;;;;10349460;28;20154;-75
2022/05/08 18:42:08;;;;;;;13.53;7.67;;;;;;;;;;10374602;28;20136;-75
2022/05/08 18:47:12;;;;;;;11.40;6.60;;;;;;;;;;10356233;28;20049;-76
2022/05/08 18:52:15;;;;;;;13.57;8.07;;;;;;;;;;10370098;28;20030;-72
2022/05/08 18:57:18;;;;;;;13.77;7.23;;;;;;;;;;10351274;28;20080;-73
2022/05/08 19:02:23;;;;;;;12.70;7.10;;;;;;;;;;10364508;28;20030;-72
2022/05/08 19:07:26;;;;;;;23.20;11.90;;;;;;;;;;10375636;28;20205;-75
2022/05/08 19:12:29;;;;;;;15.43;7.30;;;;;;;;;;10355421;28;20066;-73
2022/05/08 19:17:37;;;;;;;14.68;6.50;;;;;;;;;;10367437;28;20041;-78
2022/05/08 19:22:47;;;;;;;18.80;8.85;;;;;;;;;;10353322;28;20356;-76
2022/05/08 19:27:49;;;;;;;16.25;8.02;;;;;;;;;;10360183;28;20082;-73
2022/05/08 19:38:14;;;;;;;14.02;7.32;;;;;;;;;;10361296;28;20707;-77
2022/05/08 19:43:17;;;;;;;18.42;9.57;;;;;;;;;;10345772;28;20061;-76
2022/05/08 19:48:21;;;;;;;22.75;10.30;;;;;;;;;;10370738;28;20070;-76
2022/05/08 19:53:24;;;;;;;16.38;8.93;;;;;;;;;;10355810;28;20410;-75
2022/05/08 19:58:27;;;;;;;19.38;10.25;;;;;;;;;;10356185;28;20560;-74
2022/05/08 20:03:31;;;;;;;19.73;10.00;;;;;;;;;;10366361;28;20133;-76
2022/05/08 20:08:34;;;;;;;21.70;10.93;;;;;;;;;;10363175;28;20046;-76
2022/05/08 20:13:37;;;;;;;18.25;8.88;;;;;;;;;;10358831;28;20062;-75
2022/05/08 20:18:42;;;;;;;18.13;9.18;;;;;;;;;;10360127;28;20128;-74
2022/05/08 20:23:44;;;;;;;18.73;9.50;;;;;;;;;;10358707;28;20102;-75
2022/05/08 20:28:47;;;;;;;20.83;9.85;;;;;;;;;;10362943;28;20125;-75
2022/05/08 20:33:51;;;;;;;19.73;9.55;;;;;;;;;;10358098;28;20456;-75
2022/05/08 20:38:54;;;;;;;19.92;9.70;;;;;;;;;;10361995;28;20499;-76
2022/05/08 20:43:57;;;;;;;17.52;9.73;;;;;;;;;;10359250;28;20065;-78
2022/05/08 20:49:01;;;;;;;18.23;9.25;;;;;;;;;;10377923;28;20136;-75
2022/05/08 20:54:04;;;;;;;22.58;11.00;;;;;;;;;;10359139;28;20134;-76
2022/05/08 20:59:08;;;;;;;22.07;10.13;;;;;;;;;;10350746;28;20125;-76
2022/05/08 21:04:12;;;;;;;20.23;9.95;;;;;;;;;;10366023;28;20064;-75
2022/05/08 21:09:15;;;;;;;20.75;9.88;;;;;;;;;;10360866;28;20041;-74
2022/05/08 21:14:18;;;;;;;20.67;9.77;;;;;;;;;;10355932;28;20030;-75
2022/05/08 21:19:23;;;;;;;20.77;9.55;;;;;;;;;;10357364;28;20140;-75
2022/05/08 21:24:26;;;;;;;18.50;9.73;;;;;;;;;;10362655;28;20050;-76
2022/05/08 21:29:29;;;;;;;17.23;8.93;;;;;;;;;;10361494;28;20484;-75
2022/05/08 21:34:33;;;;;;;16.75;9.00;;;;;;;;;;10359469;28;20097;-74
2022/05/08 21:39:36;;;;;;;16.02;8.73;;;;;;;;;;10353835;28;20520;-74
2022/05/08 21:44:39;;;;;;;14.30;8.20;;;;;;;;;;10358412;28;20132;-75
2022/05/08 21:49:44;;;;;;;15.37;8.13;;;;;;;;;;10364035;28;20061;-77
2022/05/08 21:54:47;;;;;;;19.35;9.15;;;;;;;;;;10367060;28;20069;-75
2022/05/08 21:59:50;;;;;;;16.43;8.50;;;;;;;;;;10359629;28;20417;-75
2022/05/08 22:04:55;;;;;;;18.17;8.83;;;;;;;;;;10369707;28;20025;-76
2022/05/08 22:09:58;;;;;;;17.77;8.68;;;;;;;;;;10380024;28;20072;-75
2022/05/08 22:15:01;;;;;;;17.50;8.95;;;;;;;;;;10361794;28;20026;-75
2022/05/08 22:20:06;;;;;;;16.98;8.77;;;;;;;;;;10361798;28;20570;-76
2022/05/08 22:25:10;;;;;;;13.68;7.57;;;;;;;;;;10351748;28;20054;-75
2022/05/08 22:30:13;;;;;;;17.08;8.18;;;;;;;;;;10361853;28;20398;-75
2022/05/08 22:35:17;;;;;;;16.25;8.40;;;;;;;;;;10359082;28;20081;-76
2022/05/08 22:40:20;;;;;;;16.38;8.32;;;;;;;;;;10357198;28;20187;-74
2022/05/08 22:45:22;;;;;;;18.42;8.55;;;;;;;;;;10360092;28;20485;-77
2022/05/08 22:50:27;;;;;;;17.77;8.52;;;;;;;;;;10355214;28;20100;-76
2022/05/08 22:55:29;;;;;;;19.60;9.00;;;;;;;;;;10351472;28;20084;-75
2022/05/08 23:00:32;;;;;;;16.23;8.80;;;;;;;;;;10358125;28;20041;-77
2022/05/08 23:05:37;;;;;;;18.97;9.13;;;;;;;;;;10363481;28;20039;-77
2022/05/08 23:10:40;;;;;;;18.25;9.10;;;;;;;;;;10360990;28;20073;-76
2022/05/08 23:15:46;;;;;;;17.83;9.10;;;;;;;;;;10360383;28;20061;-76
2022/05/08 23:20:50;;;;;;;17.42;8.55;;;;;;;;;;10365900;28;20486;-76
2022/05/08 23:25:55;;;;;;;17.17;8.77;;;;;;;;;;10355495;28;20065;-75
2022/05/08 23:31:00;;;;;;;18.92;9.50;;;;;;;;;;10358354;28;20042;-76
2022/05/08 23:36:07;;;;;;;18.38;9.23;;;;;;;;;;10361526;28;20029;-75
2022/05/08 23:41:12;;;;;;;17.42;9.13;;;;;;;;;;10358087;28;20303;-78
2022/05/08 23:46:16;;;;;;;21.25;10.40;;;;;;;;;;10362714;28;20045;-77
2022/05/08 23:51:26;;;;;;;20.25;9.85;;;;;;;;;;10356988;28;20038;-77
2022/05/08 23:56:29;;;;;;;22.02;10.05;;;;;;;;;;10367578;28;20050;-75
